createdAt,value
2023-04-01T00:00:41.974Z,96543.72
2023-04-01T00:03:10.487Z,96539.38
2023-04-01T00:05:39.163Z,96535.88
2023-04-01T00:08:07.779Z,96536.09
2023-04-01T00:10:36.279Z,96528.84
2023-04-01T00:13:06.565Z,96537.97
2023-04-01T00:15:35.180Z,96529.69
2023-04-01T00:18:03.743Z,96533.19
2023-04-01T00:20:32.293Z,96524.91
2023-04-01T00:23:00.723Z,96523.25
2023-04-01T00:25:29.463Z,96527.81
2023-04-01T00:27:57.920Z,96519.75
2023-04-01T00:30:27.881Z,96531.31
2023-04-01T00:32:56.406Z,96532.34
2023-04-01T00:35:24.924Z,96524.31
2023-04-01T00:37:53.306Z,96534.22
2023-04-01T00:40:29.684Z,96530.50
2023-04-01T00:42:58.472Z,96529.69
2023-04-01T00:45:35.320Z,96524.31
2023-04-01T00:48:07.638Z,96523.50
2023-04-01T00:50:36.683Z,96519.97
2023-04-01T00:53:05.373Z,96530.50
2023-04-01T00:55:36.008Z,96528.03
2023-04-01T00:58:06.255Z,96531.53
2023-04-01T01:00:36.476Z,96540.66
2023-04-01T01:03:05.071Z,96544.16
2023-04-01T01:05:48.718Z,96540.41
2023-04-01T01:08:22.274Z,96536.91
2023-04-01T01:10:51.570Z,96536.09
2023-04-01T01:13:22.674Z,96535.28
2023-04-01T01:15:55.007Z,96534.44
2023-04-01T01:18:28.511Z,96537.97
2023-04-01T01:21:21.227Z,96536.31
2023-04-01T01:24:32.548Z,96533.63
2023-04-01T01:27:06.538Z,96538.19
2023-04-01T01:30:04.223Z,96530.13
2023-04-01T01:33:08.280Z,96526.38
2023-04-01T01:35:39.685Z,96522.06
2023-04-01T01:38:10.114Z,96514.00
2023-04-01T01:40:38.917Z,96510.50
2023-04-01T01:43:09.168Z,96516.69
2023-04-01T01:45:39.771Z,96515.63
2023-04-01T01:48:08.438Z,96515.88
2023-04-01T01:50:38.449Z,96518.56
2023-04-01T01:53:08.024Z,96514.00
2023-04-01T01:55:38.295Z,96520.44
2023-04-01T01:58:10.111Z,96515.06
2023-04-01T02:00:38.566Z,96523.13
2023-04-01T02:03:07.227Z,96519.59
2023-04-01T02:05:37.323Z,96525.81
2023-04-01T02:08:08.719Z,96522.06
2023-04-01T02:10:39.840Z,96532.19
2023-04-01T02:13:11.862Z,96527.66
2023-04-01T02:15:44.006Z,96528.50
2023-04-01T02:18:13.144Z,96536.56
2023-04-01T02:20:43.113Z,96529.31
2023-04-01T02:23:11.626Z,96522.28
2023-04-01T02:25:40.185Z,96523.13
2023-04-01T02:28:09.328Z,96526.00
2023-04-01T02:30:39.356Z,96526.00
2023-04-01T02:33:07.875Z,96528.50
2023-04-01T02:35:36.812Z,96535.69
2023-04-01T02:38:06.914Z,96539.25
2023-04-01T02:40:45.489Z,96543.75
2023-04-01T02:43:14.234Z,96542.94
2023-04-01T02:45:42.744Z,96545.63
2023-04-01T02:48:11.252Z,96541.31
2023-04-01T02:50:39.802Z,96534.88
2023-04-01T02:53:09.743Z,96539.25
2023-04-01T02:55:38.310Z,96547.50
2023-04-01T02:58:06.871Z,96542.94
2023-04-01T03:00:35.562Z,96545.63
2023-04-01T03:03:04.741Z,96545.63
2023-04-01T03:05:33.481Z,96542.94
2023-04-01T03:08:02.074Z,96548.31
2023-04-01T03:10:31.940Z,96544.59
2023-04-01T03:13:00.523Z,96547.50
2023-04-01T03:15:29.009Z,96555.56
2023-04-01T03:17:57.823Z,96549.38
2023-04-01T03:20:26.373Z,96557.59
2023-04-01T03:22:54.956Z,96556.97
2023-04-01T03:25:23.759Z,96552.66
2023-04-01T03:27:53.541Z,96546.44
2023-04-01T03:30:22.179Z,96541.94
2023-04-01T03:32:51.125Z,96551.00
2023-04-01T03:35:19.884Z,96542.94
2023-04-01T03:37:48.399Z,96552.88
2023-04-01T03:40:17.070Z,96550.19
2023-04-01T03:42:45.697Z,96552.88
2023-04-01T03:45:15.633Z,96551.00
2023-04-01T03:47:44.195Z,96546.69
2023-04-01T03:50:13.244Z,96545.63
2023-04-01T03:52:41.629Z,96554.75
2023-04-01T03:55:10.663Z,96548.31
2023-04-01T03:57:39.201Z,96550.41
2023-04-01T04:00:10.636Z,96549.38
2023-04-01T04:02:40.522Z,96550.41
2023-04-01T04:05:10.004Z,96551.25
2023-04-01T04:07:38.471Z,96545.88
2023-04-01T04:10:08.536Z,96550.41
2023-04-01T04:12:36.989Z,96545.03
2023-04-01T04:15:06.471Z,96545.03
2023-04-01T04:17:34.907Z,96544.81
2023-04-01T04:20:05.370Z,96550.19
2023-04-01T04:22:33.860Z,96547.72
2023-04-01T04:25:02.330Z,96549.56
2023-04-01T04:27:31.036Z,96547.72
2023-04-01T04:29:59.504Z,96545.03
2023-04-01T04:32:29.407Z,96546.91
2023-04-01T04:34:58.497Z,96545.03
2023-04-01T04:37:28.317Z,96544.22
2023-04-01T04:39:56.733Z,96546.69
2023-04-01T04:42:25.372Z,96550.41
2023-04-01T04:44:53.858Z,96550.41
2023-04-01T04:47:22.308Z,96556.63
2023-04-01T04:49:50.721Z,96552.28
2023-04-01T04:52:19.257Z,96551.25
2023-04-01T04:54:49.041Z,96553.09
2023-04-01T04:57:17.570Z,96546.69
2023-04-01T04:59:46.171Z,96557.44
2023-04-01T05:02:14.742Z,96556.63
2023-04-01T05:04:43.491Z,96564.69
2023-04-01T05:07:12.289Z,96562.00
2023-04-01T05:09:40.787Z,96562.00
2023-04-01T05:12:10.657Z,96559.31
2023-04-01T05:14:39.353Z,96564.69
2023-04-01T05:17:10.933Z,96562.00
2023-04-01T05:19:39.433Z,96555.78
2023-04-01T05:22:08.169Z,96559.50
2023-04-01T05:24:36.651Z,96566.50
2023-04-01T05:27:05.237Z,96569.19
2023-04-01T05:29:36.078Z,96562.19
2023-04-01T05:32:04.611Z,96558.47
2023-04-01T05:34:33.152Z,96569.19
2023-04-01T05:37:01.599Z,96571.69
2023-04-01T05:39:30.255Z,96566.31
2023-04-01T05:41:58.804Z,96572.50
2023-04-01T05:44:27.220Z,96569.81
2023-04-01T05:46:57.204Z,96573.56
2023-04-01T05:49:27.672Z,96567.38
2023-04-01T05:51:57.352Z,96566.31
2023-04-01T05:54:26.149Z,96572.75
2023-04-01T05:56:54.636Z,96572.75
2023-04-01T05:59:23.061Z,96573.56
2023-04-01T06:01:51.582Z,96566.91
2023-04-01T06:04:21.419Z,96573.91
2023-04-01T06:06:49.877Z,96582.81
2023-04-01T06:09:20.515Z,96585.72
2023-04-01T06:12:18.520Z,96580.56
2023-04-01T06:14:51.261Z,96585.13
2023-04-01T06:17:28.550Z,96581.38
2023-04-01T06:20:02.912Z,96582.22
2023-04-01T06:22:51.627Z,96582.22
2023-04-01T06:25:42.538Z,96590.28
2023-04-01T06:28:46.890Z,96594.59
2023-04-01T06:31:27.644Z,96586.53
2023-04-01T06:34:11.243Z,96595.66
2023-04-01T06:36:55.610Z,96593.53
2023-04-01T06:39:33.402Z,96596.22
2023-04-01T06:42:27.697Z,96595.41
2023-04-01T06:45:04.399Z,96594.59
2023-04-01T06:47:45.570Z,96594.59
2023-04-01T06:50:20.129Z,96594.59
2023-04-01T06:52:54.638Z,96594.59
2023-04-01T06:55:38.835Z,96596.22
2023-04-01T06:58:11.770Z,96602.66
2023-04-01T07:00:42.266Z,96600.78
2023-04-01T07:03:18.974Z,96603.28
2023-04-01T07:05:47.420Z,96604.28
2023-04-01T07:08:20.447Z,96596.84
2023-04-01T07:10:50.457Z,96604.91
2023-04-01T07:13:23.183Z,96605.72
2023-04-01T07:16:00.743Z,96603.28
2023-04-01T07:18:35.467Z,96609.47
2023-04-01T07:21:06.912Z,96606.53
2023-04-01T07:23:41.435Z,96615.66
2023-04-01T07:26:16.988Z,96612.97
2023-04-01T07:28:45.521Z,96614.59
2023-04-01T07:31:22.072Z,96609.47
2023-04-01T07:33:58.502Z,96611.09
2023-04-01T07:36:31.183Z,96619.16
2023-04-01T07:39:08.360Z,96623.50
2023-04-01T07:41:45.442Z,96624.75
2023-04-01T07:44:17.201Z,96635.69
2023-04-01T07:46:58.170Z,96634.25
2023-04-01T07:49:32.527Z,96632.38
2023-04-01T07:52:03.858Z,96628.44
2023-04-01T07:54:41.171Z,96638.38
2023-04-01T07:57:12.005Z,96634.25
2023-04-01T07:59:45.774Z,96636.69
2023-04-01T08:02:26.722Z,96632.59
2023-04-01T08:05:03.112Z,96635.06
2023-04-01T08:07:36.114Z,96637.31
2023-04-01T08:10:12.010Z,96640.00
2023-04-01T08:12:48.665Z,96642.06
2023-04-01T08:15:23.115Z,96641.63
2023-04-01T08:18:06.421Z,96646.59
2023-04-01T08:20:39.402Z,96644.13
2023-04-01T08:23:13.504Z,96650.94
2023-04-01T08:25:47.099Z,96648.06
2023-04-01T08:28:20.105Z,96642.47
2023-04-01T08:30:51.819Z,96651.34
2023-04-01T08:33:23.476Z,96643.28
2023-04-01T08:35:55.543Z,96645.16
2023-04-01T08:38:28.474Z,96657.34
2023-04-01T08:41:24.776Z,96644.88
2023-04-01T08:44:22.136Z,96647.16
2023-04-01T08:47:18.999Z,96645.75
2023-04-01T08:50:03.820Z,96644.94
2023-04-01T08:52:38.646Z,96649.03
2023-04-01T08:55:47.289Z,96643.91
2023-04-01T08:58:54.868Z,96647.41
2023-04-01T09:01:44.186Z,96648.22
2023-04-01T09:04:44.601Z,96652.78
2023-04-01T09:07:24.593Z,96654.41
2023-04-01T09:10:51.917Z,96658.97
2023-04-01T09:14:00.141Z,96654.41
2023-04-01T09:16:42.310Z,96656.38
2023-04-01T09:19:33.853Z,96654.03
2023-04-01T09:22:19.949Z,96647.69
2023-04-01T09:25:23.653Z,96649.88
2023-04-01T09:27:58.984Z,96642.47
2023-04-01T09:31:07.570Z,96653.25
2023-04-01T09:34:23.495Z,96653.50
2023-04-01T09:36:58.034Z,96650.63
2023-04-01T09:39:38.774Z,96659.31
2023-04-01T09:42:44.048Z,96653.66
2023-04-01T09:45:27.788Z,96656.34
2023-04-01T09:48:11.920Z,96653.50
2023-04-01T09:50:48.055Z,96650.81
2023-04-01T09:53:44.531Z,96656.19
2023-04-01T09:57:06.454Z,96646.84
2023-04-01T10:00:34.096Z,96659.47
2023-04-01T10:03:52.926Z,96646.03
2023-04-01T10:07:20.097Z,96654.75
2023-04-01T10:10:36.811Z,96654.91
2023-04-01T10:13:50.095Z,96650.97
2023-04-01T10:16:58.671Z,96657.09
2023-04-01T10:20:05.374Z,96654.19
2023-04-01T10:23:20.423Z,96644.69
2023-04-01T10:26:39.402Z,96648.28
2023-04-01T10:29:28.720Z,96653.03
2023-04-01T10:32:31.990Z,96670.44
2023-04-01T10:35:46.832Z,96660.50
2023-04-01T10:39:20.812Z,96658.88
2023-04-01T10:42:25.178Z,96660.06
2023-04-01T10:46:05.845Z,96663.59
2023-04-01T10:49:12.591Z,96661.09
2023-04-01T10:54:48.249Z,96657.59
2023-04-01T10:57:40.557Z,96664.41
2023-04-01T11:00:32.723Z,96670.81
2023-04-01T11:03:49.169Z,96660.66
2023-04-01T11:06:52.159Z,96660.91
2023-04-01T11:09:41.389Z,96666.28
2023-04-01T11:13:08.463Z,96656.94
2023-04-01T11:16:50.171Z,96648.28
2023-04-01T11:19:49.756Z,96656.94
2023-04-01T11:22:33.280Z,96654.03
2023-04-01T11:25:45.356Z,96649.91
2023-04-01T11:28:38.649Z,96659.63
2023-04-01T11:31:26.143Z,96656.94
2023-04-01T11:33:57.361Z,96652.59
2023-04-01T11:36:35.697Z,96650.53
2023-04-01T11:39:14.536Z,96654.63
2023-04-01T11:41:50.456Z,96645.97
2023-04-01T11:44:20.913Z,96647.59
2023-04-01T11:47:17.106Z,96647.59
2023-04-01T11:49:58.904Z,96652.97
2023-04-01T11:53:19.690Z,96650.53
2023-04-01T11:55:59.133Z,96656.72
2023-04-01T11:58:56.375Z,96655.91
2023-04-01T12:01:51.590Z,96659.63
2023-04-01T12:04:57.408Z,96663.97
2023-04-01T12:08:02.300Z,96658.59
2023-04-01T12:10:40.051Z,96664.78
2023-04-01T12:13:19.004Z,96661.28
2023-04-01T12:16:14.320Z,96659.63
2023-04-01T12:18:45.412Z,96661.28
2023-04-01T12:21:24.140Z,96667.47
2023-04-01T12:24:27.330Z,96670.16
2023-04-01T12:27:13.539Z,96667.72
2023-04-01T12:30:01.700Z,96664.41
2023-04-01T12:32:36.567Z,96659.41
2023-04-01T12:35:21.399Z,96669.09
2023-04-01T12:38:16.300Z,96673.44
2023-04-01T12:40:54.111Z,96667.47
2023-04-01T12:43:59.588Z,96668.56
2023-04-01T12:46:33.546Z,96662.75
2023-04-01T12:49:51.560Z,96668.53
2023-04-01T12:52:25.235Z,96672.63
2023-04-01T12:55:40.884Z,96675.78
2023-04-01T12:58:48.274Z,96680.19
2023-04-01T13:01:47.973Z,96685.09
2023-04-01T13:04:54.740Z,96691.41
2023-04-01T13:07:38.466Z,96684.63
2023-04-01T13:10:14.993Z,96681.53
2023-04-01T13:13:05.499Z,96691.81
2023-04-01T13:15:39.139Z,96689.09
2023-04-01T13:18:23.535Z,96688.09
2023-04-01T13:21:01.007Z,96690.09
2023-04-01T13:23:42.199Z,96687.56
2023-04-01T13:26:19.468Z,96687.53
2023-04-01T13:28:53.421Z,96687.31
2023-04-01T13:32:03.620Z,96687.72
2023-04-01T13:34:42.378Z,96698.22
2023-04-01T13:37:27.265Z,96701.53
2023-04-01T13:40:31.695Z,96697.78
2023-04-01T13:43:03.523Z,96698.41
2023-04-01T13:45:40.483Z,96710.13
2023-04-01T13:48:30.567Z,96713.63
2023-04-01T13:51:21.634Z,96726.25
2023-04-01T13:54:17.062Z,96726.06
2023-04-01T13:56:53.479Z,96728.75
2023-04-01T13:59:53.403Z,96725.00
2023-04-01T14:02:39.199Z,96718.81
2023-04-01T14:05:32.209Z,96726.66
2023-04-01T14:08:12.534Z,96721.28
2023-04-01T14:10:45.671Z,96721.88
2023-04-01T14:13:20.196Z,96718.97
2023-04-01T14:16:19.728Z,96727.88
2023-04-01T14:19:10.877Z,96730.56
2023-04-01T14:21:43.194Z,96730.34
2023-04-01T14:24:26.292Z,96738.41
2023-04-01T14:27:29.411Z,96733.03
2023-04-01T14:30:09.863Z,96733.03
2023-04-01T14:32:46.956Z,96730.56
2023-04-01T14:35:33.887Z,96739.84
2023-04-01T14:38:50.578Z,96740.66
2023-04-01T14:41:23.419Z,96743.09
2023-04-01T14:44:54.392Z,96741.03
2023-04-01T14:47:45.126Z,96738.34
2023-04-01T14:50:16.142Z,96745.38
2023-04-01T14:53:01.608Z,96733.78
2023-04-01T14:55:35.320Z,96738.34
2023-04-01T14:58:15.029Z,96746.41
2023-04-01T15:01:00.586Z,96753.66
2023-04-01T15:03:32.598Z,96752.84
2023-04-01T15:06:36.889Z,96753.88
2023-04-01T15:09:09.302Z,96754.72
2023-04-01T15:11:49.617Z,96757.59
2023-04-01T15:14:39.706Z,96764.84
2023-04-01T15:17:26.614Z,96763.88
2023-04-01T15:20:16.097Z,96774.44
2023-04-01T15:23:05.368Z,96763.69
2023-04-01T15:25:48.314Z,96769.44
2023-04-01T15:28:25.178Z,96767.97
2023-04-01T15:30:57.608Z,96766.13
2023-04-01T15:33:52.449Z,96780.59
2023-04-01T15:36:32.100Z,96775.38
2023-04-01T15:39:06.319Z,96783.44
2023-04-01T15:41:41.444Z,96789.88
2023-04-01T15:44:39.716Z,96796.50
2023-04-01T15:47:10.738Z,96795.25
2023-04-01T15:49:42.016Z,96795.69
2023-04-01T15:52:16.464Z,96805.19
2023-04-01T15:55:10.912Z,96795.69
2023-04-01T15:57:46.953Z,96798.13
2023-04-01T16:00:29.575Z,96800.00
2023-04-01T16:03:16.944Z,96805.63
2023-04-01T16:05:57.061Z,96804.56
2023-04-01T16:09:13.045Z,96807.25
2023-04-01T16:11:48.663Z,96802.31
2023-04-01T16:14:29.208Z,96815.31
2023-04-01T16:17:08.370Z,96810.00
2023-04-01T16:19:55.543Z,96817.38
2023-04-01T16:22:29.072Z,96818.22
2023-04-01T16:25:09.774Z,96811.81
2023-04-01T16:27:43.489Z,96812.63
2023-04-01T16:30:30.006Z,96814.69
2023-04-01T16:33:03.374Z,96808.88
2023-04-01T16:35:39.727Z,96816.13
2023-04-01T16:38:15.790Z,96821.50
2023-04-01T16:40:49.104Z,96825.88
2023-04-01T16:43:24.183Z,96828.75
2023-04-01T16:46:26.380Z,96843.00
2023-04-01T16:49:05.253Z,96846.53
2023-04-01T16:51:40.248Z,96846.31
2023-04-01T16:54:17.259Z,96856.03
2023-04-01T16:56:48.143Z,96859.75
2023-04-01T16:59:21.321Z,96857.69
2023-04-01T17:01:54.013Z,96863.06
2023-04-01T17:04:30.448Z,96863.06
2023-04-01T17:07:06.786Z,96877.31
2023-04-01T17:09:53.963Z,96876.72
2023-04-01T17:12:26.739Z,96880.22
2023-04-01T17:15:02.015Z,96886.84
2023-04-01T17:17:40.896Z,96894.09
2023-04-01T17:20:44.300Z,96892.47
2023-04-01T17:23:21.257Z,96898.03
2023-04-01T17:26:00.862Z,96898.44
2023-04-01T17:28:38.011Z,96900.53
2023-04-01T17:31:13.243Z,96907.97
2023-04-01T17:34:01.413Z,96911.72
2023-04-01T17:36:39.935Z,96908.59
2023-04-01T17:39:49.480Z,96905.72
2023-04-01T17:42:22.768Z,96917.28
2023-04-01T17:44:57.510Z,96923.28
2023-04-01T17:47:38.736Z,96927.84
2023-04-01T17:50:24.700Z,96932.97
2023-04-01T17:53:10.461Z,96928.47
2023-04-01T17:55:58.282Z,96934.84
2023-04-01T17:58:33.550Z,96930.28
2023-04-01T18:01:38.613Z,96931.34
2023-04-01T18:04:27.864Z,96942.72
2023-04-01T18:07:39.665Z,96945.59
2023-04-01T18:10:21.211Z,96943.72
2023-04-01T18:13:21.790Z,96953.66
2023-04-01T18:15:57.328Z,96959.03
2023-04-01T18:18:47.735Z,96953.66
2023-04-01T18:21:23.325Z,96965.25
2023-04-01T18:24:02.292Z,96968.78
2023-04-01T18:26:34.060Z,96970.41
2023-04-01T18:29:06.958Z,96971.22
2023-04-01T18:31:39.400Z,96970.41
2023-04-01T18:34:11.181Z,96972.28
2023-04-01T18:36:45.563Z,96973.09
2023-04-01T18:39:17.955Z,96978.47
2023-04-01T18:41:58.411Z,96982.81
2023-04-01T18:44:37.390Z,96981.16
2023-04-01T18:47:22.441Z,96986.53
2023-04-01T18:49:56.827Z,96992.97
2023-04-01T18:52:29.242Z,96987.59
2023-04-01T18:55:35.518Z,96995.47
2023-04-01T18:58:36.753Z,96996.06
2023-04-01T19:01:26.688Z,96990.09
2023-04-01T19:04:03.607Z,96997.72
2023-04-01T19:06:36.299Z,97009.31
2023-04-01T19:09:24.316Z,97000.63
2023-04-01T19:12:15.764Z,97012.41
2023-04-01T19:15:11.478Z,97002.47
2023-04-01T19:17:51.398Z,97013.63
2023-04-01T19:20:25.332Z,97011.78
2023-04-01T19:23:34.111Z,97012.00
2023-04-01T19:26:03.565Z,97007.44
2023-04-01T19:28:41.892Z,97011.16
2023-04-01T19:31:18.185Z,97027.28
2023-04-01T19:33:55.041Z,97026.25
2023-04-01T19:36:28.652Z,97027.28
2023-04-01T19:39:03.062Z,97032.69
2023-04-01T19:41:39.123Z,97029.38
2023-04-01T19:44:25.705Z,97037.63
2023-04-01T19:46:57.593Z,97036.00
2023-04-01T19:49:43.376Z,97038.69
2023-04-01T19:52:17.277Z,97045.91
2023-04-01T19:54:49.013Z,97051.28
2023-04-01T19:57:25.241Z,97046.94
2023-04-01T19:59:55.979Z,97055.00
2023-04-01T20:02:59.057Z,97057.69
2023-04-01T20:05:35.948Z,97057.69
2023-04-01T20:08:13.488Z,97057.09
2023-04-01T20:10:46.393Z,97060.38
2023-04-01T20:13:21.589Z,97057.50
2023-04-01T20:16:00.878Z,97065.34
2023-04-01T20:18:37.782Z,97065.34
2023-04-01T20:21:10.371Z,97064.50
2023-04-01T20:23:46.391Z,97068.03
2023-04-01T20:26:15.983Z,97070.13
2023-04-01T20:28:51.633Z,97074.44
2023-04-01T20:31:33.738Z,97062.06
2023-04-01T20:34:34.771Z,97078.19
2023-04-01T20:37:15.152Z,97067.41
2023-04-01T20:40:09.397Z,97076.50
2023-04-01T20:42:51.625Z,97081.88
2023-04-01T20:45:36.625Z,97077.34
2023-04-01T20:48:51.898Z,97082.94
2023-04-01T20:51:24.884Z,97084.78
2023-04-01T20:53:57.492Z,97079.19
2023-04-01T20:56:42.852Z,97083.97
2023-04-01T20:59:46.055Z,97081.88
2023-04-01T21:02:35.203Z,97093.69
2023-04-01T21:05:34.296Z,97096.38
2023-04-01T21:08:07.659Z,97094.50
2023-04-01T21:10:42.579Z,97091.81
2023-04-01T21:13:24.191Z,97104.44
2023-04-01T21:16:05.784Z,97106.31
2023-04-01T21:18:52.333Z,97113.53
2023-04-01T21:21:41.838Z,97115.41
2023-04-01T21:24:59.821Z,97117.06
2023-04-01T21:27:54.216Z,97116.22
2023-04-01T21:30:36.995Z,97118.91
2023-04-01T21:33:16.224Z,97121.59
2023-04-01T21:35:48.861Z,97119.94
2023-04-01T21:38:35.578Z,97122.63
2023-04-01T21:41:25.866Z,97118.09
2023-04-01T21:44:54.157Z,97128.00
2023-04-01T21:48:25.580Z,97128.00
2023-04-01T21:51:32.982Z,97129.88
2023-04-01T21:54:27.634Z,97130.69
2023-04-01T21:57:29.194Z,97133.19
2023-04-01T22:00:32.525Z,97124.28
2023-04-01T22:03:52.830Z,97126.16
2023-04-01T22:06:27.335Z,97132.34
2023-04-01T22:09:04.393Z,97130.69
2023-04-01T22:11:45.844Z,97139.78
2023-04-01T22:14:21.441Z,97140.41
2023-04-01T22:16:53.049Z,97135.25
2023-04-01T22:19:28.290Z,97134.41
2023-04-01T22:22:03.684Z,97135.25
2023-04-01T22:24:50.316Z,97145.16
2023-04-01T22:27:26.540Z,97146.00
2023-04-01T22:30:05.631Z,97151.38
2023-04-01T22:32:38.742Z,97139.78
2023-04-01T22:35:14.052Z,97150.53
2023-04-01T22:37:48.260Z,97144.97
2023-04-01T22:40:25.839Z,97147.66
2023-04-01T22:42:59.921Z,97140.84
2023-04-01T22:46:22.812Z,97147.84
2023-04-01T22:48:55.353Z,97155.09
2023-04-01T22:51:30.812Z,97157.56
2023-04-01T22:54:07.287Z,97160.25
2023-04-01T22:56:38.522Z,97161.28
2023-04-01T22:59:12.740Z,97165.63
2023-04-01T23:01:46.816Z,97167.50
2023-04-01T23:04:19.466Z,97164.81
2023-04-01T23:06:54.036Z,97169.38
2023-04-01T23:09:23.827Z,97164.81
2023-04-01T23:11:54.196Z,97172.88
2023-04-01T23:14:50.249Z,97162.34
2023-04-01T23:17:43.460Z,97167.72
2023-04-01T23:20:28.639Z,97159.66
2023-04-01T23:23:11.822Z,97163.16
2023-04-01T23:25:48.807Z,97165.03
2023-04-01T23:28:36.523Z,97165.03
2023-04-01T23:31:06.032Z,97172.06
2023-04-01T23:33:35.424Z,97171.44
2023-04-01T23:36:17.792Z,97175.78
2023-04-01T23:38:51.107Z,97180.31
2023-04-01T23:41:21.840Z,97177.63
2023-04-01T23:43:55.250Z,97191.91
2023-04-01T23:46:24.149Z,97191.91
2023-04-01T23:48:53.055Z,97195.41
2023-04-01T23:51:24.456Z,97195.41
2023-04-01T23:54:05.302Z,97195.63
2023-04-01T23:56:40.085Z,97197.28
2023-04-01T23:59:16.466Z,97191.91
